createdAt,value
2023-05-09T04:27:18.631Z,18.50
2023-05-09T04:29:53.506Z,18.60
2023-05-09T04:32:23.369Z,19.00
2023-05-09T04:34:53.090Z,18.60
2023-05-09T04:37:24.929Z,18.60
2023-05-09T04:39:52.535Z,19.00
2023-05-09T04:42:29.864Z,19.00
2023-05-09T04:57:51.241Z,18.90
2023-05-09T06:08:37.322Z,22.50
2023-05-09T06:11:05.954Z,22.70
2023-05-09T06:13:33.531Z,23.30
2023-05-09T06:22:52.398Z,23.40
2023-05-09T06:25:20.876Z,24.00
2023-05-09T10:31:26.560Z,25.00
2023-05-09T10:33:58.598Z,25.20
2023-05-09T10:36:29.989Z,25.30
2023-05-09T10:38:57.644Z,25.80
2023-05-09T10:41:27.734Z,25.60
2023-05-09T10:43:59.878Z,25.70
2023-05-09T10:46:27.959Z,25.60
2023-05-09T10:48:56.409Z,26.00
2023-05-09T10:51:24.552Z,25.30
2023-05-09T10:53:52.740Z,25.10
2023-05-09T10:56:40.313Z,25.10
2023-05-09T10:59:37.872Z,24.50
2023-05-09T11:02:05.859Z,24.80
2023-05-09T11:29:56.236Z,24.80
2023-05-09T11:32:30.857Z,25.20
2023-05-09T11:35:15.771Z,24.70
2023-05-09T11:37:54.938Z,24.80
2023-05-09T11:40:24.070Z,25.20
2023-05-09T11:42:57.768Z,24.90
2023-05-09T11:48:49.028Z,25.00
2023-05-09T11:51:19.446Z,25.00
2023-05-09T11:53:52.006Z,25.00
2023-05-09T11:56:22.879Z,25.00
2023-05-09T11:58:52.189Z,25.00
2023-05-09T12:01:19.933Z,25.40
2023-05-09T12:03:47.953Z,24.90
2023-05-09T12:06:17.838Z,24.80
2023-05-09T12:08:47.071Z,25.30
2023-05-09T12:11:15.107Z,24.60
2023-05-09T12:13:50.414Z,24.50
2023-05-09T12:16:19.047Z,24.40
2023-05-09T12:18:51.620Z,24.40
2023-05-09T12:21:22.460Z,24.80
2023-05-09T12:23:55.934Z,24.20
2023-05-09T12:26:23.685Z,24.90
2023-05-09T12:28:52.132Z,24.40
2023-05-09T12:31:21.297Z,24.40
2023-05-09T12:33:48.992Z,25.10
2023-05-09T12:36:16.709Z,24.60
2023-05-09T12:38:56.934Z,25.20
2023-05-09T12:43:54.873Z,24.70
2023-05-09T12:46:22.258Z,24.90
2023-05-09T12:48:50.616Z,25.30
2023-05-09T12:51:22.812Z,24.60
2023-05-09T12:53:50.217Z,24.60
2023-05-09T12:56:19.304Z,24.60
2023-05-09T12:58:51.534Z,25.10
2023-05-09T13:01:23.895Z,25.10
2023-05-09T13:03:52.716Z,24.50
2023-05-09T13:06:21.002Z,24.80
2023-05-09T13:09:02.572Z,24.60
2023-05-09T13:11:30.116Z,24.50
2023-05-09T13:13:58.127Z,25.00
2023-05-09T13:16:25.626Z,24.40
2023-05-09T13:18:56.104Z,24.70
2023-05-09T13:21:23.591Z,25.00
2023-05-09T13:23:51.173Z,24.40
2023-05-09T13:26:18.884Z,24.50
2023-05-09T13:28:46.351Z,24.90
2023-05-09T13:31:13.870Z,25.00
2023-05-09T13:33:41.283Z,24.80
2023-05-09T13:36:08.655Z,25.10
2023-05-09T13:38:40.648Z,24.70
2023-05-09T13:41:09.078Z,25.30
2023-05-09T13:43:37.202Z,25.30
2023-05-09T13:46:05.033Z,25.00
2023-05-09T13:48:32.474Z,25.00
2023-05-09T13:51:03.748Z,25.50
2023-05-09T13:53:31.541Z,25.50
2023-05-09T13:56:00.094Z,25.20
2023-05-09T13:58:28.957Z,25.20
2023-05-09T14:00:56.505Z,25.20
2023-05-09T14:03:24.085Z,25.60
2023-05-09T14:06:23.936Z,25.20
2023-05-09T14:08:54.765Z,25.10
2023-05-09T14:11:29.455Z,25.20
2023-05-09T14:14:02.832Z,25.10
2023-05-09T14:16:30.200Z,25.10
2023-05-09T14:18:58.664Z,25.20
2023-05-09T14:21:27.148Z,25.30
2023-05-09T14:23:54.509Z,25.50
2023-05-09T14:26:22.131Z,25.80
2023-05-09T14:28:49.491Z,25.50
2023-05-09T14:31:17.561Z,25.30
2023-05-09T14:33:45.818Z,25.20
2023-05-09T14:36:13.188Z,25.30
2023-05-09T14:38:41.026Z,25.80
2023-05-09T14:41:09.144Z,25.30
2023-05-09T14:43:36.818Z,25.30
2023-05-09T14:46:06.402Z,25.20
2023-05-09T14:48:34.023Z,25.20
2023-05-09T14:51:02.384Z,25.80
2023-05-09T14:53:47.822Z,25.50
2023-05-09T14:56:16.676Z,25.10
2023-05-09T14:58:53.126Z,25.10
2023-05-09T15:01:35.836Z,25.00
2023-05-09T15:04:04.383Z,24.90
2023-05-09T15:10:18.289Z,24.50
2023-05-09T15:12:46.176Z,24.40
2023-05-09T15:12:52.950Z,24.70
2023-05-09T15:15:18.983Z,24.30
2023-05-09T15:17:47.267Z,24.40
2023-05-09T15:20:21.990Z,24.10
2023-05-09T15:23:33.364Z,24.10
2023-05-09T15:26:29.438Z,24.00
2023-05-09T15:29:01.585Z,23.80
2023-05-09T15:31:33.848Z,24.30
2023-05-09T15:34:02.015Z,23.90
2023-05-09T15:36:30.068Z,23.80
2023-05-09T15:39:00.632Z,23.70
2023-05-09T15:41:28.683Z,24.00
2023-05-09T15:43:57.066Z,23.60
2023-05-09T15:46:24.889Z,23.50
2023-05-09T15:48:54.739Z,23.40
2023-05-09T15:51:23.808Z,24.00
2023-05-09T15:53:54.511Z,23.70
2023-05-09T15:56:25.919Z,23.30
2023-05-09T15:59:12.245Z,23.20
2023-05-09T16:02:00.295Z,23.20
2023-05-09T16:04:48.798Z,23.20
2023-05-09T16:07:16.159Z,23.80
2023-05-09T16:09:44.641Z,23.20
2023-05-09T16:12:12.484Z,23.20
2023-05-09T16:14:39.874Z,23.20
2023-05-09T16:17:07.269Z,23.20
2023-05-09T16:19:36.104Z,23.30
2023-05-09T16:22:04.200Z,23.20
2023-05-09T16:24:32.670Z,23.10
2023-05-09T16:26:59.997Z,23.70
2023-05-09T16:29:28.388Z,23.10
2023-05-09T16:31:55.800Z,23.60
2023-05-09T16:34:23.374Z,23.00
2023-05-09T16:36:52.188Z,23.40
2023-05-09T16:39:19.563Z,23.00
2023-05-09T16:41:46.830Z,22.90
2023-05-09T16:44:15.232Z,23.20
2023-05-09T16:46:42.587Z,22.90
2023-05-09T16:49:10.311Z,22.90
2023-05-09T16:51:38.517Z,22.90
2023-05-09T16:54:07.784Z,23.40
2023-05-09T16:56:35.500Z,23.40
2023-05-09T16:59:03.425Z,22.80
2023-05-09T17:01:30.955Z,23.20
2023-05-09T17:03:58.339Z,22.70
2023-05-09T17:06:26.566Z,22.80
2023-05-09T17:08:54.550Z,22.70
2023-05-09T17:11:22.776Z,23.00
2023-05-09T17:13:50.285Z,22.70
2023-05-09T17:16:17.713Z,22.70
2023-05-09T17:18:48.174Z,22.60
2023-05-09T17:21:16.562Z,22.60
2023-05-09T17:23:43.931Z,22.60
2023-05-09T17:26:11.567Z,22.50
2023-05-09T17:28:38.933Z,22.40
2023-05-09T17:31:06.342Z,22.40
2023-05-09T17:33:33.973Z,22.40
2023-05-09T17:36:01.579Z,22.60
2023-05-09T17:38:28.983Z,22.30
2023-05-09T17:40:56.950Z,22.90
2023-05-09T17:43:24.895Z,22.80
2023-05-09T17:45:52.451Z,22.20
2023-05-09T17:48:21.177Z,22.40
2023-05-09T17:50:49.543Z,22.30
2023-05-09T17:53:17.199Z,22.20
2023-05-09T17:55:45.016Z,22.20
2023-05-09T17:58:12.604Z,22.20
2023-05-09T18:00:39.992Z,22.10
2023-05-09T18:03:09.753Z,22.10
2023-05-09T18:05:37.376Z,22.10
2023-05-09T18:08:05.566Z,22.10
2023-05-09T18:10:33.146Z,22.10
2023-05-09T18:13:00.512Z,22.00
2023-05-09T18:15:30.069Z,22.00
2023-05-09T18:17:57.734Z,22.00
2023-05-09T18:20:25.281Z,22.00
2023-05-09T18:22:53.798Z,22.50
2023-05-09T18:25:21.611Z,21.90
2023-05-09T18:27:49.080Z,21.80
2023-05-09T18:30:18.701Z,22.10
2023-05-09T18:32:48.517Z,21.60
2023-05-09T18:35:16.186Z,21.50
2023-05-09T18:37:44.256Z,21.50
2023-05-09T18:40:15.533Z,21.40
2023-05-09T18:42:43.774Z,21.40
2023-05-09T18:45:12.442Z,21.30
2023-05-09T18:53:53.970Z,21.20
2023-05-09T19:02:36.280Z,21.00
2023-05-09T19:05:08.533Z,21.40
2023-05-09T19:07:36.415Z,20.50
2023-05-09T19:10:05.078Z,21.30
2023-05-09T19:15:53.983Z,20.80
2023-05-09T19:18:21.528Z,20.80
2023-05-09T19:20:50.955Z,20.80
2023-05-09T19:32:53.197Z,20.70
